createdAt,value
2022-09-01T00:00:41.598Z,17.55
2022-09-01T00:01:42.133Z,17.35
2022-09-01T00:02:41.636Z,17.38
2022-09-01T00:03:41.595Z,17.36
2022-09-01T00:04:41.705Z,17.35
2022-09-01T00:05:41.898Z,17.36
2022-09-01T00:06:42.107Z,17.43
2022-09-01T00:07:42.331Z,17.55
2022-09-01T00:08:42.771Z,17.49
2022-09-01T00:09:41.446Z,17.63
2022-09-01T00:10:41.440Z,17.51
2022-09-01T00:11:41.567Z,17.40
2022-09-01T00:12:41.455Z,17.43
2022-09-01T00:13:41.407Z,17.51
2022-09-01T00:14:42.191Z,17.36
2022-09-01T00:15:41.448Z,17.35
2022-09-01T00:16:41.463Z,17.28
2022-09-01T00:17:43.043Z,17.25
2022-09-01T00:18:42.279Z,17.27
2022-09-01T00:19:41.995Z,17.15
2022-09-01T00:20:41.395Z,16.99
2022-09-01T00:21:41.375Z,16.98
2022-09-01T00:22:41.331Z,16.87
2022-09-01T00:23:41.361Z,16.66
2022-09-01T00:24:41.329Z,16.66
2022-09-01T00:25:41.356Z,16.55
2022-09-01T00:26:41.304Z,16.48
2022-09-01T00:27:41.267Z,16.47
2022-09-01T00:28:41.293Z,16.40
2022-09-01T00:29:43.416Z,16.36
2022-09-01T00:30:41.315Z,16.22
2022-09-01T00:31:41.284Z,16.17
2022-09-01T00:32:41.322Z,16.07
2022-09-01T00:33:41.212Z,16.07
2022-09-01T00:34:41.216Z,16.18
2022-09-01T00:35:41.184Z,16.30
2022-09-01T00:36:41.154Z,16.33
2022-09-01T00:37:41.146Z,16.30
2022-09-01T00:38:41.137Z,16.37
2022-09-01T00:39:41.156Z,16.32
2022-09-01T00:40:41.139Z,16.36
2022-09-01T00:41:42.148Z,16.40
2022-09-01T00:42:41.108Z,16.33
2022-09-01T00:43:41.104Z,16.37
2022-09-01T00:44:41.112Z,16.36
2022-09-01T00:45:41.130Z,16.36
2022-09-01T00:46:49.452Z,16.37
2022-09-01T00:47:41.082Z,16.42
2022-09-01T00:48:41.048Z,16.41
2022-09-01T00:49:41.016Z,16.40
2022-09-01T00:50:41.081Z,16.26
2022-09-01T00:51:41.038Z,16.27
2022-09-01T00:52:41.628Z,16.13
2022-09-01T00:53:41.018Z,16.27
2022-09-01T00:54:41.084Z,16.16
2022-09-01T00:55:41.448Z,16.18
2022-09-01T00:56:41.357Z,16.07
2022-09-01T00:57:42.885Z,15.99
2022-09-01T00:58:41.174Z,15.98
2022-09-01T00:59:41.637Z,15.89
2022-09-01T01:00:41.887Z,15.68
2022-09-01T01:01:41.368Z,15.67
2022-09-01T01:02:40.983Z,15.71
2022-09-01T01:03:40.881Z,15.62
2022-09-01T01:04:40.857Z,15.59
2022-09-01T01:05:40.830Z,15.60
2022-09-01T01:06:40.849Z,15.70
2022-09-01T01:07:40.869Z,15.73
2022-09-01T01:08:40.819Z,15.70
2022-09-01T01:09:40.859Z,15.71
2022-09-01T01:10:40.793Z,15.76
2022-09-01T01:11:40.773Z,15.70
2022-09-01T01:12:40.797Z,15.80
2022-09-01T01:13:40.726Z,15.89
2022-09-01T01:14:40.738Z,15.93
2022-09-01T01:15:40.742Z,15.98
2022-09-01T01:16:40.776Z,16.08
2022-09-01T01:17:40.739Z,16.18
2022-09-01T01:18:40.706Z,16.17
2022-09-01T01:19:40.890Z,16.27
2022-09-01T01:20:40.653Z,16.16
2022-09-01T01:21:40.842Z,16.29
2022-09-01T01:22:40.661Z,16.26
2022-09-01T01:23:40.662Z,16.33
2022-09-01T01:24:40.622Z,16.30
2022-09-01T01:25:40.634Z,16.30
2022-09-01T01:26:40.611Z,16.34
2022-09-01T01:27:43.060Z,16.34
2022-09-01T01:28:40.970Z,16.36
2022-09-01T01:29:41.059Z,16.42
2022-09-01T01:30:41.115Z,16.40
2022-09-01T01:31:40.543Z,16.47
2022-09-01T01:32:40.566Z,16.40
2022-09-01T01:33:40.579Z,16.37
2022-09-01T01:34:40.507Z,16.42
2022-09-01T01:35:40.505Z,16.45
2022-09-01T01:36:40.526Z,16.44
2022-09-01T01:37:40.506Z,16.37
2022-09-01T01:38:40.536Z,16.37
2022-09-01T01:39:40.480Z,16.45
2022-09-01T01:40:40.556Z,16.33
2022-09-01T01:41:40.399Z,16.40
2022-09-01T01:42:40.456Z,16.45
2022-09-01T01:43:40.452Z,16.42
2022-09-01T01:44:40.547Z,16.48
2022-09-01T01:45:41.083Z,16.37
2022-09-01T01:46:40.414Z,16.29
2022-09-01T01:47:42.324Z,16.40
2022-09-01T01:48:40.385Z,16.34
2022-09-01T01:49:41.150Z,16.41
2022-09-01T01:50:40.345Z,16.37
2022-09-01T01:51:40.366Z,16.48
2022-09-01T01:52:40.321Z,16.47
2022-09-01T01:53:41.332Z,16.30
2022-09-01T01:54:40.317Z,16.40
2022-09-01T01:55:40.281Z,16.41
2022-09-01T01:56:40.269Z,16.34
2022-09-01T01:57:40.232Z,16.25
2022-09-01T01:58:40.219Z,16.26
2022-09-01T01:59:40.234Z,16.36
2022-09-01T02:00:40.283Z,16.34
2022-09-01T02:01:40.215Z,16.33
2022-09-01T02:02:40.274Z,16.34
2022-09-01T02:03:40.191Z,16.47
2022-09-01T02:04:40.192Z,16.50
2022-09-01T02:05:40.155Z,16.34
2022-09-01T02:06:40.150Z,16.34
2022-09-01T02:07:40.129Z,16.42
2022-09-01T02:08:40.106Z,16.45
2022-09-01T02:09:40.082Z,16.36
2022-09-01T02:10:40.058Z,16.33
2022-09-01T02:11:40.069Z,16.42
2022-09-01T02:12:41.029Z,16.40
2022-09-01T02:13:40.234Z,16.48
2022-09-01T02:14:40.070Z,16.40
2022-09-01T02:15:40.082Z,16.44
2022-09-01T02:17:12.487Z,16.44
2022-09-01T02:17:40.102Z,16.30
2022-09-01T02:18:40.071Z,16.40
2022-09-01T02:19:39.998Z,16.33
2022-09-01T02:20:39.994Z,16.29
2022-09-01T02:21:40.047Z,16.34
2022-09-01T02:22:39.963Z,16.33
2022-09-01T02:23:40.027Z,16.32
2022-09-01T02:24:40.150Z,16.32
2022-09-01T02:25:53.867Z,16.33
2022-09-01T02:26:42.067Z,16.26
2022-09-01T02:27:39.963Z,16.13
2022-09-01T02:28:39.900Z,16.18
2022-09-01T02:29:43.270Z,16.13
2022-09-01T02:30:39.997Z,16.23
2022-09-01T02:31:39.968Z,16.23
2022-09-01T02:32:39.915Z,16.18
2022-09-01T02:33:39.874Z,16.22
2022-09-01T02:34:39.925Z,16.16
2022-09-01T02:35:39.884Z,16.16
2022-09-01T02:36:39.892Z,16.18
2022-09-01T02:37:39.897Z,16.17
2022-09-01T02:38:39.810Z,16.08
2022-09-01T02:39:39.819Z,16.06
2022-09-01T02:40:39.894Z,16.08
2022-09-01T02:41:39.760Z,16.08
2022-09-01T02:42:39.774Z,16.04
2022-09-01T02:43:39.891Z,16.14
2022-09-01T02:44:41.474Z,15.99
2022-09-01T02:45:40.804Z,15.89
2022-09-01T02:46:39.740Z,15.89
2022-09-01T02:47:39.760Z,15.80
2022-09-01T02:48:39.668Z,15.77
2022-09-01T02:49:39.695Z,15.78
2022-09-01T02:50:39.719Z,15.70
2022-09-01T02:51:39.696Z,15.76
2022-09-01T02:52:39.639Z,15.70
2022-09-01T02:53:39.621Z,15.73
2022-09-01T02:54:39.597Z,15.73
2022-09-01T02:55:39.651Z,15.77
2022-09-01T02:56:39.557Z,15.86
2022-09-01T02:57:39.624Z,15.81
2022-09-01T02:58:39.569Z,15.76
2022-09-01T02:59:43.623Z,15.78
2022-09-01T03:00:41.164Z,15.73
2022-09-01T03:01:40.541Z,15.71
2022-09-01T03:02:40.594Z,15.70
2022-09-01T03:03:39.552Z,15.73
2022-09-01T03:04:39.599Z,15.74
2022-09-01T03:05:39.585Z,15.80
2022-09-01T03:06:39.517Z,15.89
2022-09-01T03:07:39.454Z,15.85
2022-09-01T03:08:39.458Z,15.86
2022-09-01T03:09:39.425Z,15.66
2022-09-01T03:10:39.541Z,15.66
2022-09-01T03:11:39.553Z,15.64
2022-09-01T03:12:39.447Z,15.68
2022-09-01T03:13:39.457Z,15.64
2022-09-01T03:14:39.397Z,15.64
2022-09-01T03:15:39.416Z,15.66
2022-09-01T03:16:39.455Z,15.73
2022-09-01T03:17:39.325Z,15.60
2022-09-01T03:18:40.022Z,15.60
2022-09-01T03:19:40.243Z,15.66
2022-09-01T03:20:39.289Z,15.62
2022-09-01T03:21:39.401Z,15.58
2022-09-01T03:22:39.341Z,15.59
2022-09-01T03:23:39.333Z,15.56
2022-09-01T03:24:39.275Z,15.55
2022-09-01T03:25:39.281Z,15.67
2022-09-01T03:26:39.310Z,15.64
2022-09-01T03:27:39.329Z,15.71
2022-09-01T03:28:39.214Z,15.68
2022-09-01T03:29:40.085Z,15.67
2022-09-01T03:30:39.193Z,15.80
2022-09-01T03:31:39.253Z,15.73
2022-09-01T03:32:39.189Z,15.71
2022-09-01T03:33:39.150Z,15.74
2022-09-01T03:34:39.245Z,15.85
2022-09-01T03:35:39.107Z,15.78
2022-09-01T03:36:39.119Z,15.53
2022-09-01T03:37:39.103Z,15.38
2022-09-01T03:38:39.083Z,15.30
2022-09-01T03:39:39.261Z,15.09
2022-09-01T03:40:39.161Z,14.97
2022-09-01T03:41:39.102Z,15.03
2022-09-01T03:42:39.030Z,15.00
2022-09-01T03:43:39.068Z,15.04
2022-09-01T03:44:40.188Z,15.03
2022-09-01T03:45:39.078Z,15.11
2022-09-01T03:46:39.004Z,15.22
2022-09-01T03:47:38.950Z,15.19
2022-09-01T03:48:39.089Z,15.20
2022-09-01T03:49:39.065Z,15.15
2022-09-01T03:50:39.051Z,15.18
2022-09-01T03:51:39.994Z,15.15
2022-09-01T03:52:39.105Z,15.22
2022-09-01T03:53:38.940Z,15.25
2022-09-01T03:54:39.155Z,15.38
2022-09-01T03:55:39.730Z,15.33
2022-09-01T03:56:39.063Z,15.25
2022-09-01T03:57:38.899Z,15.41
2022-09-01T03:58:38.855Z,15.38
2022-09-01T03:59:38.887Z,15.51
2022-09-01T04:00:39.019Z,15.52
2022-09-01T04:01:38.890Z,15.49
2022-09-01T04:02:38.847Z,15.53
2022-09-01T04:03:38.831Z,15.48
2022-09-01T04:04:38.768Z,15.38
2022-09-01T04:05:38.799Z,15.37
2022-09-01T04:06:38.812Z,15.30
2022-09-01T04:07:39.675Z,15.25
2022-09-01T04:08:38.719Z,15.23
2022-09-01T04:09:38.731Z,15.30
2022-09-01T04:10:38.704Z,15.20
2022-09-01T04:11:41.441Z,15.11
2022-09-01T04:12:39.724Z,15.11
2022-09-01T04:13:38.763Z,15.12
2022-09-01T04:14:38.768Z,15.11
2022-09-01T04:15:38.860Z,15.16
2022-09-01T04:16:38.775Z,15.18
2022-09-01T04:17:38.655Z,15.23
2022-09-01T04:18:38.660Z,15.07
2022-09-01T04:19:38.640Z,15.11
2022-09-01T04:20:38.685Z,15.03
2022-09-01T04:21:38.695Z,15.05
2022-09-01T04:22:38.608Z,15.09
2022-09-01T04:23:38.631Z,15.19
2022-09-01T04:24:42.133Z,15.27
2022-09-01T04:25:39.564Z,15.27
2022-09-01T04:26:38.512Z,15.27
2022-09-01T04:27:38.557Z,15.25
2022-09-01T04:28:38.532Z,15.25
2022-09-01T04:29:38.593Z,15.22
2022-09-01T04:30:38.593Z,15.19
2022-09-01T04:31:38.630Z,15.27
2022-09-01T04:32:38.468Z,15.15
2022-09-01T04:33:38.478Z,14.94
2022-09-01T04:34:38.423Z,15.03
2022-09-01T04:35:38.417Z,15.01
2022-09-01T04:36:38.440Z,15.01
2022-09-01T04:37:38.390Z,15.11
2022-09-01T04:38:38.413Z,14.98
2022-09-01T04:39:38.357Z,14.97
2022-09-01T04:40:38.399Z,15.01
2022-09-01T04:41:38.346Z,15.05
2022-09-01T04:42:38.349Z,14.95
2022-09-01T04:43:38.374Z,14.83
2022-09-01T04:44:38.363Z,14.87
2022-09-01T04:45:38.355Z,14.86
2022-09-01T04:46:38.270Z,14.80
2022-09-01T04:47:38.338Z,14.80
2022-09-01T04:48:38.283Z,14.91
2022-09-01T04:49:38.263Z,14.87
2022-09-01T04:50:38.424Z,14.95
2022-09-01T04:51:38.230Z,14.86
2022-09-01T04:52:38.294Z,14.93
2022-09-01T04:53:38.237Z,14.86
2022-09-01T04:54:38.242Z,14.72
2022-09-01T04:55:38.183Z,14.71
2022-09-01T04:56:39.225Z,14.86
2022-09-01T04:57:38.582Z,14.93
2022-09-01T04:58:38.149Z,14.97
2022-09-01T04:59:38.197Z,15.00
2022-09-01T05:00:38.262Z,15.05
2022-09-01T05:01:38.184Z,15.25
2022-09-01T05:02:38.166Z,15.31
2022-09-01T05:03:38.121Z,15.34
2022-09-01T05:04:38.066Z,15.44
2022-09-01T05:05:38.106Z,15.41
2022-09-01T05:06:38.090Z,15.48
2022-09-01T05:07:38.131Z,15.38
2022-09-01T05:08:38.046Z,15.40
2022-09-01T05:09:38.045Z,15.34
2022-09-01T05:10:38.015Z,15.28
2022-09-01T05:11:37.978Z,15.25
2022-09-01T05:12:37.972Z,15.27
2022-09-01T05:13:37.991Z,15.31
2022-09-01T05:14:37.935Z,15.41
2022-09-01T05:15:38.218Z,15.27
2022-09-01T05:16:38.038Z,15.15
2022-09-01T05:17:37.899Z,15.15
2022-09-01T05:18:37.896Z,15.19
2022-09-01T05:19:38.024Z,15.13
2022-09-01T05:20:37.895Z,15.20
2022-09-01T05:21:37.899Z,15.27
2022-09-01T05:22:37.854Z,15.37
2022-09-01T05:23:37.915Z,15.35
2022-09-01T05:24:41.990Z,15.46
2022-09-01T05:25:38.819Z,15.46
2022-09-01T05:26:37.797Z,15.55
2022-09-01T05:27:37.794Z,15.62
2022-09-01T05:28:37.843Z,15.62
2022-09-01T05:29:37.789Z,15.62
2022-09-01T05:30:37.850Z,15.66
2022-09-01T05:31:38.009Z,15.64
2022-09-01T05:32:37.721Z,15.62
2022-09-01T05:33:37.731Z,15.78
2022-09-01T05:34:38.735Z,15.53
2022-09-01T05:35:37.779Z,15.68
2022-09-01T05:36:37.739Z,15.66
2022-09-01T05:37:37.756Z,15.74
2022-09-01T05:38:37.719Z,15.86
2022-09-01T05:39:37.716Z,15.80
2022-09-01T05:40:37.788Z,15.88
2022-09-01T05:41:37.682Z,15.91
2022-09-01T05:42:37.675Z,15.92
2022-09-01T05:43:37.610Z,16.08
2022-09-01T05:44:37.686Z,16.07
2022-09-01T05:46:03.039Z,16.11
2022-09-01T05:46:39.717Z,15.98
2022-09-01T05:47:37.640Z,16.13
2022-09-01T05:48:37.555Z,16.07
2022-09-01T05:49:37.588Z,15.98
2022-09-01T05:50:37.623Z,15.98
2022-09-01T05:51:46.399Z,15.85
2022-09-01T05:52:39.531Z,15.93
2022-09-01T05:53:37.483Z,15.91
2022-09-01T05:54:37.552Z,15.91
2022-09-01T05:55:37.699Z,15.93
2022-09-01T05:56:40.284Z,16.06
2022-09-01T05:57:38.514Z,16.03
2022-09-01T05:59:39.520Z,16.04
2022-09-01T06:00:37.573Z,16.10
2022-09-01T06:01:37.479Z,16.11
2022-09-01T06:02:37.482Z,16.11
2022-09-01T06:03:38.289Z,16.07
2022-09-01T06:04:37.418Z,16.14
2022-09-01T06:05:37.486Z,16.01
2022-09-01T06:06:55.062Z,16.11
2022-09-01T06:07:39.727Z,16.06
2022-09-01T06:08:37.368Z,16.06
2022-09-01T06:09:37.422Z,16.04
2022-09-01T06:10:37.383Z,16.10
2022-09-01T06:11:37.322Z,16.08
2022-09-01T06:12:37.319Z,16.06
2022-09-01T06:13:37.379Z,16.08
2022-09-01T06:14:37.363Z,16.11
2022-09-01T06:15:37.231Z,16.01
2022-09-01T06:16:37.273Z,16.07
2022-09-01T06:17:37.244Z,16.14
2022-09-01T06:18:37.243Z,16.11
2022-09-01T06:19:37.550Z,16.26
2022-09-01T06:20:38.245Z,16.26
2022-09-01T06:21:37.196Z,16.23
2022-09-01T06:22:37.726Z,16.42
2022-09-01T06:23:37.185Z,16.37
2022-09-01T06:24:37.159Z,16.44
2022-09-01T06:25:37.196Z,16.48
2022-09-01T06:26:37.114Z,16.55
2022-09-01T06:27:37.239Z,16.69
2022-09-01T06:28:37.131Z,16.70
2022-09-01T06:29:37.327Z,16.73
2022-09-01T06:30:37.075Z,16.70
2022-09-01T06:31:37.129Z,16.77
2022-09-01T06:32:37.065Z,16.91
2022-09-01T06:33:37.000Z,16.80
2022-09-01T06:34:37.008Z,17.00
2022-09-01T06:35:37.020Z,17.02
2022-09-01T06:36:37.308Z,17.09
2022-09-01T06:37:36.959Z,17.10
2022-09-01T06:38:36.985Z,17.10
2022-09-01T06:39:37.004Z,17.20
2022-09-01T06:40:37.033Z,17.17
2022-09-01T06:41:36.996Z,17.18
2022-09-01T06:42:36.993Z,17.21
2022-09-01T06:43:37.052Z,17.02
2022-09-01T06:44:40.583Z,16.98
2022-09-01T06:45:37.968Z,16.92
2022-09-01T06:46:36.894Z,16.92
2022-09-01T06:47:36.814Z,16.92
2022-09-01T06:48:36.861Z,16.88
2022-09-01T06:49:36.877Z,16.95
2022-09-01T06:51:38.817Z,16.90
2022-09-01T06:53:39.044Z,17.00
2022-09-01T06:54:36.788Z,16.99
2022-09-01T06:55:36.782Z,17.12
2022-09-01T06:56:38.937Z,17.15
2022-09-01T06:58:07.140Z,17.03
2022-09-01T06:58:38.780Z,17.22
2022-09-01T06:59:37.142Z,17.39
2022-09-01T07:00:36.673Z,17.40
2022-09-01T07:01:38.989Z,17.51
2022-09-01T07:02:36.940Z,17.49
2022-09-01T07:03:37.078Z,17.46
2022-09-01T07:04:36.691Z,17.53
2022-09-01T07:08:04.860Z,17.76
2022-09-01T07:09:19.890Z,17.86
2022-09-01T07:09:47.891Z,17.83
2022-09-01T07:11:19.637Z,17.89
2022-09-01T07:12:38.554Z,18.20
2022-09-01T07:13:36.606Z,18.26
2022-09-01T07:16:30.222Z,18.34
2022-09-01T07:16:40.532Z,18.41
2022-09-01T07:17:38.550Z,18.42
2022-09-01T07:18:36.596Z,18.42
2022-09-01T07:19:51.769Z,18.47
2022-09-01T07:21:02.673Z,18.60
2022-09-01T07:21:40.867Z,18.62
2022-09-01T07:23:02.986Z,18.68
2022-09-01T07:24:38.497Z,18.90
2022-09-01T07:26:00.647Z,18.91
2022-09-01T07:26:46.673Z,19.06
2022-09-01T07:27:40.472Z,19.12
2022-09-01T07:28:37.590Z,19.20
2022-09-01T07:29:36.416Z,19.31
2022-09-01T07:30:36.469Z,19.35
2022-09-01T07:31:51.801Z,19.31
2022-09-01T07:32:43.968Z,19.47
2022-09-01T07:33:41.797Z,19.49
2022-09-01T07:34:38.694Z,19.50
2022-09-01T07:35:37.385Z,19.50
2022-09-01T07:37:16.130Z,19.38
2022-09-01T07:39:55.146Z,19.47
2022-09-01T07:43:38.230Z,19.52
2022-09-01T07:44:36.241Z,19.49
2022-09-01T07:45:36.279Z,19.57
2022-09-01T07:46:37.839Z,19.53
2022-09-01T07:47:53.048Z,19.50
2022-09-01T07:49:02.539Z,19.49
2022-09-01T07:50:11.958Z,19.43
2022-09-01T07:51:07.563Z,19.38
2022-09-01T07:51:38.432Z,19.43
2022-09-01T07:52:37.124Z,19.38
2022-09-01T07:53:36.137Z,19.38
2022-09-01T07:54:36.133Z,19.32
2022-09-01T07:55:36.794Z,19.60
2022-09-01T07:56:39.929Z,19.53
2022-09-01T07:57:37.085Z,19.42
2022-09-01T07:58:36.157Z,19.50
2022-09-01T07:59:36.069Z,19.52
2022-09-01T08:00:36.333Z,19.65
2022-09-01T08:01:36.102Z,19.67
2022-09-01T08:02:36.282Z,19.68
2022-09-01T08:03:37.064Z,19.68
2022-09-01T08:04:36.076Z,19.76
2022-09-01T08:05:36.002Z,19.72
2022-09-01T08:06:39.329Z,19.71
2022-09-01T08:07:51.700Z,19.72
2022-09-01T08:08:38.143Z,19.67
2022-09-01T08:09:38.106Z,19.60
2022-09-01T08:10:36.869Z,19.64
2022-09-01T08:12:01.661Z,19.58
2022-09-01T08:12:38.022Z,19.64
2022-09-01T08:13:41.435Z,19.62
2022-09-01T08:14:36.896Z,19.57
2022-09-01T08:15:40.977Z,19.60
2022-09-01T08:16:51.921Z,19.71
2022-09-01T08:17:53.173Z,19.82
2022-09-01T08:18:52.847Z,19.87
2022-09-01T08:19:38.053Z,20.00
2022-09-01T08:20:35.849Z,19.95
2022-09-01T08:21:35.905Z,19.87
2022-09-01T08:22:35.913Z,19.86
2022-09-01T08:23:36.725Z,19.98
2022-09-01T08:24:36.032Z,19.86
2022-09-01T08:25:35.839Z,19.86
2022-09-01T08:26:36.465Z,20.04
2022-09-01T08:27:35.861Z,20.05
2022-09-01T08:28:35.761Z,20.15
2022-09-01T08:29:36.361Z,20.12
2022-09-01T08:30:36.181Z,20.12
2022-09-01T08:31:36.833Z,20.23
2022-09-01T08:32:35.931Z,20.27
2022-09-01T08:33:35.649Z,20.31
2022-09-01T08:34:36.030Z,20.53
2022-09-01T08:35:36.117Z,20.73
2022-09-01T08:36:35.730Z,20.85
2022-09-01T08:37:36.333Z,20.97
2022-09-01T08:38:35.729Z,21.03
2022-09-01T08:39:35.611Z,21.13
2022-09-01T08:40:35.633Z,21.19
2022-09-01T08:41:35.781Z,21.09
2022-09-01T08:42:35.533Z,21.06
2022-09-01T08:43:35.566Z,21.05
2022-09-01T08:44:35.694Z,21.05
2022-09-01T08:45:54.470Z,21.13
2022-09-01T08:46:35.510Z,21.12
2022-09-01T08:49:25.790Z,21.21
2022-09-01T08:51:29.618Z,21.22
2022-09-01T08:51:32.663Z,21.27
2022-09-01T08:52:31.992Z,21.26
2022-09-01T08:53:32.697Z,21.37
2022-09-01T08:54:34.562Z,21.28
2022-09-01T08:55:32.022Z,21.31
2022-09-01T08:56:32.260Z,21.34
2022-09-01T08:57:32.023Z,21.40
2022-09-01T08:58:33.843Z,21.45
2022-09-01T08:59:32.086Z,21.43
2022-09-01T09:00:32.405Z,21.56
2022-09-01T09:01:32.776Z,21.64
2022-09-01T09:02:33.615Z,21.75
2022-09-01T09:03:43.206Z,21.64
2022-09-01T09:04:42.968Z,21.77
2022-09-01T09:05:32.066Z,21.75
2022-09-01T09:06:32.180Z,21.70
2022-09-01T09:07:32.811Z,21.77
2022-09-01T09:08:33.517Z,21.91
2022-09-01T09:09:33.010Z,21.89
2022-09-01T09:10:33.019Z,21.85
2022-09-01T09:11:32.536Z,21.90
2022-09-01T09:12:32.879Z,22.06
2022-09-01T09:13:31.771Z,21.99
2022-09-01T09:14:32.050Z,21.81
2022-09-01T09:15:31.673Z,21.59
2022-09-01T09:16:31.664Z,21.52
2022-09-01T09:17:31.660Z,21.33
2022-09-01T09:18:39.398Z,21.21
2022-09-01T09:19:32.700Z,21.13
2022-09-01T09:20:31.949Z,21.12
2022-09-01T09:21:31.660Z,21.03
2022-09-01T09:22:31.665Z,20.94
2022-09-01T09:23:31.604Z,20.83
2022-09-01T09:24:37.920Z,20.93
2022-09-01T09:25:34.230Z,20.82
2022-09-01T09:26:43.317Z,20.81
2022-09-01T09:27:33.555Z,20.72
2022-09-01T09:28:31.534Z,20.72
2022-09-01T09:29:31.505Z,20.69
2022-09-01T09:30:31.571Z,20.78
2022-09-01T09:31:31.538Z,20.82
2022-09-01T09:32:50.457Z,20.88
2022-09-01T09:33:48.623Z,20.93
2022-09-01T09:34:33.503Z,21.00
2022-09-01T09:35:31.666Z,21.01
2022-09-01T09:36:31.497Z,20.88
2022-09-01T09:37:31.458Z,20.96
2022-09-01T09:38:33.034Z,20.94
2022-09-01T09:39:31.414Z,20.94
2022-09-01T09:40:43.316Z,20.97
2022-09-01T09:41:32.446Z,20.94
2022-09-01T09:42:36.436Z,20.88
2022-09-01T09:43:32.372Z,20.90
2022-09-01T09:44:31.365Z,20.88
2022-09-01T09:45:31.392Z,21.03
2022-09-01T09:46:31.389Z,21.09
2022-09-01T09:47:43.078Z,21.06
2022-09-01T09:48:33.342Z,21.05
2022-09-01T09:49:36.177Z,21.09
2022-09-01T09:50:31.305Z,21.12
2022-09-01T09:51:31.361Z,21.13
2022-09-01T09:52:33.532Z,21.15
2022-09-01T09:53:31.264Z,21.26
2022-09-01T09:54:31.270Z,21.16
2022-09-01T09:55:31.260Z,21.24
2022-09-01T09:56:33.193Z,21.24
2022-09-01T09:57:31.231Z,21.26
2022-09-01T09:58:31.226Z,21.27
2022-09-01T09:59:54.133Z,21.40
2022-09-01T10:00:33.265Z,21.43
2022-09-01T10:01:31.247Z,21.24
2022-09-01T10:02:31.161Z,21.21
2022-09-01T10:03:31.174Z,21.31
2022-09-01T10:04:31.272Z,21.43
2022-09-01T10:05:31.106Z,21.33
2022-09-01T10:06:31.103Z,21.27
2022-09-01T10:07:31.325Z,21.15
2022-09-01T10:08:31.122Z,21.19
2022-09-01T10:09:31.196Z,21.30
2022-09-01T10:10:31.033Z,21.28
2022-09-01T10:11:36.018Z,21.18
2022-09-01T10:12:33.054Z,21.34
2022-09-01T10:13:31.452Z,21.30
2022-09-01T10:14:51.695Z,21.09
2022-09-01T10:15:33.032Z,21.12
2022-09-01T10:16:31.989Z,21.11
2022-09-01T10:17:32.032Z,21.15
2022-09-01T10:18:30.969Z,21.13
2022-09-01T10:19:35.559Z,21.18
2022-09-01T10:20:30.968Z,21.13
2022-09-01T10:21:31.049Z,21.16
2022-09-01T10:22:32.873Z,21.26
2022-09-01T10:23:31.458Z,21.27
2022-09-01T10:24:31.205Z,21.16
2022-09-01T10:25:32.456Z,21.13
2022-09-01T10:26:32.548Z,21.22
2022-09-01T10:27:31.589Z,21.24
2022-09-01T10:28:30.865Z,21.16
2022-09-01T10:29:34.808Z,21.30
2022-09-01T10:30:31.928Z,21.24
2022-09-01T10:31:32.872Z,21.19
2022-09-01T10:32:37.308Z,21.18
2022-09-01T10:33:32.824Z,21.33
2022-09-01T10:34:30.833Z,21.43
2022-09-01T10:35:30.777Z,21.33
2022-09-01T10:36:30.849Z,21.42
2022-09-01T10:37:30.781Z,21.48
2022-09-01T10:38:30.791Z,21.38
2022-09-01T10:39:31.256Z,21.55
2022-09-01T10:40:31.891Z,21.53
2022-09-01T10:41:30.768Z,21.58
2022-09-01T10:42:30.709Z,21.52
2022-09-01T10:43:36.140Z,21.56
2022-09-01T10:44:31.812Z,21.49
2022-09-01T10:45:32.673Z,21.52
2022-09-01T10:46:49.559Z,21.59
2022-09-01T10:47:32.729Z,21.55
2022-09-01T10:48:31.975Z,21.34
2022-09-01T10:49:31.661Z,21.43
2022-09-01T10:50:35.448Z,21.40
2022-09-01T10:51:38.489Z,21.43
2022-09-01T10:52:32.613Z,21.51
2022-09-01T10:53:31.194Z,21.42
2022-09-01T10:54:30.598Z,21.43
2022-09-01T10:55:32.634Z,21.61
2022-09-01T10:56:36.657Z,21.83
2022-09-01T10:57:33.165Z,22.27
2022-09-01T10:59:37.264Z,22.42
2022-09-01T11:00:38.989Z,22.63
2022-09-01T11:01:47.723Z,22.61
2022-09-01T11:02:36.378Z,22.60
2022-09-01T11:03:34.127Z,22.59
2022-09-01T11:04:31.589Z,22.52
2022-09-01T11:05:33.333Z,22.45
2022-09-01T11:06:33.135Z,22.38
2022-09-01T11:07:50.260Z,22.11
2022-09-01T11:08:31.655Z,22.12
2022-09-01T11:09:30.430Z,22.01
2022-09-01T11:10:33.319Z,22.20
2022-09-01T11:11:30.414Z,22.15
2022-09-01T11:12:30.415Z,22.12
2022-09-01T11:13:30.399Z,22.17
2022-09-01T11:14:30.358Z,22.12
2022-09-01T11:15:30.396Z,22.12
2022-09-01T11:16:46.425Z,22.11
2022-09-01T11:17:32.427Z,22.21
2022-09-01T11:18:31.156Z,22.21
2022-09-01T11:19:30.354Z,22.26
2022-09-01T11:20:30.297Z,22.15
2022-09-01T11:21:30.269Z,22.26
2022-09-01T11:22:30.281Z,22.39
2022-09-01T11:23:30.286Z,22.44
2022-09-01T11:24:30.298Z,22.44
2022-09-01T11:25:38.734Z,22.42
2022-09-01T11:26:31.228Z,22.42
2022-09-01T11:27:30.240Z,22.46
2022-09-01T11:28:30.212Z,22.38
2022-09-01T11:29:30.346Z,22.39
2022-09-01T11:30:30.175Z,22.42
2022-09-01T11:31:30.233Z,22.45
2022-09-01T11:32:30.211Z,22.44
2022-09-01T11:33:30.184Z,22.39
2022-09-01T11:34:30.168Z,22.14
2022-09-01T11:35:31.138Z,22.20
2022-09-01T11:36:30.211Z,22.17
2022-09-01T11:37:30.111Z,22.21
2022-09-01T11:38:30.084Z,22.29
2022-09-01T11:39:30.172Z,22.30
2022-09-01T11:40:32.421Z,22.20
2022-09-01T11:41:30.083Z,22.29
2022-09-01T11:42:30.058Z,22.36
2022-09-01T11:43:30.068Z,22.29
2022-09-01T11:44:30.073Z,22.44
2022-09-01T11:45:30.061Z,22.45
2022-09-01T11:46:30.000Z,22.39
2022-09-01T11:47:29.992Z,22.45
2022-09-01T11:48:29.996Z,22.48
2022-09-01T11:49:30.013Z,22.45
2022-09-01T11:50:29.986Z,22.81
2022-09-01T11:51:29.964Z,22.88
2022-09-01T11:52:29.936Z,23.00
2022-09-01T11:53:29.932Z,23.15
2022-09-01T11:54:29.916Z,23.14
2022-09-01T11:55:29.944Z,23.54
2022-09-01T11:56:29.989Z,23.68
2022-09-01T11:57:29.896Z,23.44
2022-09-01T11:58:29.889Z,23.57
2022-09-01T11:59:29.873Z,23.44
2022-09-01T12:00:29.865Z,23.21
2022-09-01T12:01:29.854Z,23.06
2022-09-01T12:02:30.016Z,22.93
2022-09-01T12:03:30.006Z,22.81
2022-09-01T12:04:29.825Z,22.82
2022-09-01T12:05:29.842Z,22.72
2022-09-01T12:06:29.813Z,22.76
2022-09-01T12:07:29.829Z,22.74
2022-09-01T12:08:29.786Z,22.60
2022-09-01T12:09:29.926Z,22.69
2022-09-01T12:10:29.815Z,22.60
2022-09-01T12:11:29.745Z,22.56
2022-09-01T12:12:29.741Z,22.56
2022-09-01T12:13:29.728Z,22.46
2022-09-01T12:14:43.370Z,22.45
2022-09-01T12:15:32.689Z,22.36
2022-09-01T12:16:29.763Z,22.46
2022-09-01T12:17:29.806Z,22.54
2022-09-01T12:18:29.655Z,22.63
2022-09-01T12:19:29.675Z,22.69
2022-09-01T12:20:30.083Z,22.75
2022-09-01T12:21:29.649Z,22.78
2022-09-01T12:22:29.638Z,22.81
2022-09-01T12:23:29.631Z,22.93
2022-09-01T12:24:29.601Z,22.93
2022-09-01T12:25:30.607Z,23.09
2022-09-01T12:26:29.591Z,23.32
2022-09-01T12:27:29.599Z,23.74
2022-09-01T12:28:30.615Z,24.06
2022-09-01T12:29:32.119Z,24.34
2022-09-01T12:30:30.558Z,24.45
2022-09-01T12:31:29.672Z,24.61
2022-09-01T12:32:29.592Z,24.56
2022-09-01T12:33:29.657Z,24.63
2022-09-01T12:34:29.594Z,24.51
2022-09-01T12:35:29.519Z,24.42
2022-09-01T12:36:29.506Z,24.60
2022-09-01T12:37:29.474Z,24.98
2022-09-01T12:38:29.459Z,25.01
2022-09-01T12:39:29.546Z,25.26
2022-09-01T12:40:30.532Z,25.51
2022-09-01T12:41:29.498Z,25.75
2022-09-01T12:42:29.422Z,25.67
2022-09-01T12:43:30.460Z,25.71
2022-09-01T12:44:30.715Z,25.57
2022-09-01T12:45:30.444Z,25.63
2022-09-01T12:46:29.414Z,25.67
2022-09-01T12:47:29.395Z,25.83
2022-09-01T12:48:29.387Z,25.74
2022-09-01T12:49:29.332Z,25.97
2022-09-01T12:50:29.744Z,25.93
2022-09-01T12:51:31.560Z,25.51
2022-09-01T12:52:30.339Z,25.24
2022-09-01T12:53:30.609Z,24.89
2022-09-01T12:54:30.308Z,24.60
2022-09-01T12:56:31.424Z,24.04
2022-09-01T12:57:29.292Z,24.23
2022-09-01T12:58:29.251Z,24.61
2022-09-01T12:59:36.445Z,24.74
2022-09-01T13:00:30.239Z,24.79
2022-09-01T13:01:29.369Z,25.02
2022-09-01T13:02:29.367Z,25.20
2022-09-01T13:03:29.205Z,25.29
2022-09-01T13:04:29.169Z,25.17
2022-09-01T13:05:32.701Z,25.34
2022-09-01T13:06:30.177Z,25.07
2022-09-01T13:07:30.226Z,24.27
2022-09-01T13:08:29.189Z,23.78
2022-09-01T13:09:29.116Z,23.63